sensor_id;sensor_type;location;lat;lon;timestamp;pressure;altitude;pressure_sealevel;temperature;humidity
54948;BME280;41113;41.882;12.530;2023-11-21T00:00:29;100612.06;;;15.78;100.00
54948;BME280;41113;41.882;12.530;2023-11-21T00:02:54;100604.78;;;15.78;100.00
54948;BME280;41113;41.882;12.530;2023-11-21T00:05:19;100601.06;;;15.79;100.00
54948;BME280;41113;41.882;12.530;2023-11-21T00:07:48;100597.31;;;15.80;100.00
54948;BME280;41113;41.882;12.530;2023-11-21T00:10:13;100600.69;;;15.82;100.00
54948;BME280;41113;41.882;12.530;2023-11-21T00:12:39;100587.00;;;15.84;100.00
54948;BME280;41113;41.882;12.530;2023-11-21T00:15:07;100589.53;;;15.85;100.00
54948;BME280;41113;41.882;12.530;2023-11-21T00:17:36;100590.19;;;15.87;100.00
54948;BME280;41113;41.882;12.530;2023-11-21T00:20:02;100588.16;;;15.90;100.00
54948;BME280;41113;41.882;12.530;2023-11-21T00:22:31;100585.09;;;15.93;100.00
54948;BME280;41113;41.882;12.530;2023-11-21T00:24:57;100594.25;;;15.92;100.00
54948;BME280;41113;41.882;12.530;2023-11-21T00:27:22;100589.66;;;15.92;100.00
54948;BME280;41113;41.882;12.530;2023-11-21T00:29:47;100582.25;;;15.94;100.00
54948;BME280;41113;41.882;12.530;2023-11-21T00:32:13;100587.50;;;15.96;100.00
54948;BME280;41113;41.882;12.530;2023-11-21T00:34:38;100586.47;;;15.97;100.00
54948;BME280;41113;41.882;12.530;2023-11-21T00:37:03;100581.06;;;15.97;100.00
54948;BME280;41113;41.882;12.530;2023-11-21T00:39:29;100582.75;;;15.98;100.00
54948;BME280;41113;41.882;12.530;2023-11-21T00:41:54;100571.91;;;15.98;100.00
54948;BME280;41113;41.882;12.530;2023-11-21T00:44:19;100568.19;;;15.99;100.00
54948;BME280;41113;41.882;12.530;2023-11-21T00:46:44;100563.59;;;15.99;100.00
54948;BME280;41113;41.882;12.530;2023-11-21T00:49:10;100550.25;;;15.98;100.00
54948;BME280;41113;41.882;12.530;2023-11-21T00:51:35;100554.63;;;15.99;100.00
54948;BME280;41113;41.882;12.530;2023-11-21T00:54:01;100549.88;;;16.01;100.00
54948;BME280;41113;41.882;12.530;2023-11-21T00:56:26;100552.59;;;16.01;100.00
54948;BME280;41113;41.882;12.530;2023-11-21T00:58:51;100541.59;;;16.02;100.00
54948;BME280;41113;41.882;12.530;2023-11-21T01:01:18;100538.69;;;16.04;100.00
54948;BME280;41113;41.882;12.530;2023-11-21T01:03:43;100531.22;;;16.06;99.98
54948;BME280;41113;41.882;12.530;2023-11-21T01:06:08;100531.22;;;16.06;99.81
54948;BME280;41113;41.882;12.530;2023-11-21T01:08:34;100534.59;;;16.08;100.00
54948;BME280;41113;41.882;12.530;2023-11-21T01:11:00;100531.06;;;16.07;100.00
54948;BME280;41113;41.882;12.530;2023-11-21T01:13:26;100523.78;;;16.08;100.00
54948;BME280;41113;41.882;12.530;2023-11-21T01:15:54;100528.84;;;16.11;100.00
54948;BME280;41113;41.882;12.530;2023-11-21T01:18:20;100520.72;;;16.11;100.00
54948;BME280;41113;41.882;12.530;2023-11-21T01:20:45;100525.09;;;16.12;100.00
54948;BME280;41113;41.882;12.530;2023-11-21T01:23:12;100522.03;;;16.15;100.00
54948;BME280;41113;41.882;12.530;2023-11-21T01:25:37;100513.25;;;16.13;100.00
54948;BME280;41113;41.882;12.530;2023-11-21T01:28:02;100519.34;;;16.15;100.00
54948;BME280;41113;41.882;12.530;2023-11-21T01:30:27;100517.66;;;16.14;100.00
54948;BME280;41113;41.882;12.530;2023-11-21T01:32:53;100510.53;;;16.13;100.00
54948;BME280;41113;41.882;12.530;2023-11-21T01:35:18;100512.22;;;16.14;100.00
54948;BME280;41113;41.882;12.530;2023-11-21T01:37:44;100505.13;;;16.13;100.00
54948;BME280;41113;41.882;12.530;2023-11-21T01:40:09;100506.81;;;16.14;100.00
54948;BME280;41113;41.882;12.530;2023-11-21T01:42:35;100495.13;;;16.13;100.00
54948;BME280;41113;41.882;12.530;2023-11-21T01:45:01;100499.53;;;16.14;100.00
54948;BME280;41113;41.882;12.530;2023-11-21T01:47:30;100496.81;;;16.14;100.00
54948;BME280;41113;41.882;12.530;2023-11-21T01:49:56;100495.97;;;16.14;100.00
54948;BME280;41113;41.882;12.530;2023-11-21T01:52:21;100490.56;;;16.14;100.00
54948;BME280;41113;41.882;12.530;2023-11-21T01:54:46;100479.72;;;16.14;100.00
54948;BME280;41113;41.882;12.530;2023-11-21T01:57:12;100483.44;;;16.13;100.00
54948;BME280;41113;41.882;12.530;2023-11-21T01:59:38;100477.38;;;16.11;100.00
54948;BME280;41113;41.882;12.530;2023-11-21T02:02:07;100474.66;;;16.11;100.00
54948;BME280;41113;41.882;12.530;2023-11-21T02:04:33;100475.69;;;16.10;100.00
54948;BME280;41113;41.882;12.530;2023-11-21T02:06:58;100462.50;;;16.07;100.00
54948;BME280;41113;41.882;12.530;2023-11-21T02:09:25;100461.66;;;16.06;100.00
54948;BME280;41113;41.882;12.530;2023-11-21T02:11:50;100468.09;;;16.05;100.00
54948;BME280;41113;41.882;12.530;2023-11-21T02:14:16;100457.44;;;16.04;100.00
54948;BME280;41113;41.882;12.530;2023-11-21T02:16:43;100455.75;;;16.03;100.00
54948;BME280;41113;41.882;12.530;2023-11-21T02:19:13;100455.75;;;16.03;100.00
54948;BME280;41113;41.882;12.530;2023-11-21T02:21:43;100448.47;;;16.03;100.00
54948;BME280;41113;41.882;12.530;2023-11-21T02:24:10;100448.63;;;16.02;100.00
54948;BME280;41113;41.882;12.530;2023-11-21T02:26:35;100448.63;;;16.02;100.00
54948;BME280;41113;41.882;12.530;2023-11-21T02:29:00;100454.06;;;16.02;100.00
54948;BME280;41113;41.882;12.530;2023-11-21T02:31:26;100440.50;;;16.02;100.00
54948;BME280;41113;41.882;12.530;2023-11-21T02:33:52;100434.25;;;16.01;100.00
54948;BME280;41113;41.882;12.530;2023-11-21T02:36:17;100430.69;;;16.01;100.00
54948;BME280;41113;41.882;12.530;2023-11-21T02:38:43;100426.97;;;16.02;100.00
54948;BME280;41113;41.882;12.530;2023-11-21T02:41:08;100425.28;;;16.01;100.00
54948;BME280;41113;41.882;12.530;2023-11-21T02:43:33;100422.56;;;16.01;100.00
54948;BME280;41113;41.882;12.530;2023-11-21T02:45:58;100421.72;;;16.00;100.00
54948;BME280;41113;41.882;12.530;2023-11-21T02:48:24;100416.13;;;16.02;100.00
54948;BME280;41113;41.882;12.530;2023-11-21T02:50:50;100417.16;;;16.01;100.00
54948;BME280;41113;41.882;12.530;2023-11-21T02:53:18;100410.91;;;16.00;100.00
54948;BME280;41113;41.882;12.530;2023-11-21T02:55:43;100405.66;;;15.99;100.00
54948;BME280;41113;41.882;12.530;2023-11-21T02:58:08;100402.28;;;15.97;100.00
54948;BME280;41113;41.882;12.530;2023-11-21T03:00:34;100396.88;;;15.97;100.00
54948;BME280;41113;41.882;12.530;2023-11-21T03:02:59;100393.97;;;15.98;100.00
54948;BME280;41113;41.882;12.530;2023-11-21T03:05:25;100395.84;;;15.98;100.00
54948;BME280;41113;41.882;12.530;2023-11-21T03:07:50;100379.78;;;15.96;100.00
54948;BME280;41113;41.882;12.530;2023-11-21T03:10:16;100387.72;;;15.98;100.00
54948;BME280;41113;41.882;12.530;2023-11-21T03:12:41;100387.72;;;15.98;100.00
54948;BME280;41113;41.882;12.530;2023-11-21T03:15:06;100389.41;;;15.99;100.00
54948;BME280;41113;41.882;12.530;2023-11-21T03:17:32;100384.84;;;15.99;100.00
54948;BME280;41113;41.882;12.530;2023-11-21T03:19:58;100379.22;;;16.01;100.00
54948;BME280;41113;41.882;12.530;2023-11-21T03:22:24;100376.53;;;16.01;100.00
54948;BME280;41113;41.882;12.530;2023-11-21T03:24:50;100384.28;;;16.04;100.00
54948;BME280;41113;41.882;12.530;2023-11-21T03:27:15;100377.84;;;16.05;100.00
54948;BME280;41113;41.882;12.530;2023-11-21T03:29:40;100382.25;;;16.06;100.00
54948;BME280;41113;41.882;12.530;2023-11-21T03:32:05;100380.38;;;16.06;100.00
54948;BME280;41113;41.882;12.530;2023-11-21T03:34:32;100385.63;;;16.08;100.00
54948;BME280;41113;41.882;12.530;2023-11-21T03:36:57;100383.09;;;16.06;100.00
54948;BME280;41113;41.882;12.530;2023-11-21T03:39:23;100392.06;;;16.07;100.00
54948;BME280;41113;41.882;12.530;2023-11-21T03:41:50;100388.69;;;16.05;100.00
54948;BME280;41113;41.882;12.530;2023-11-21T03:44:16;100381.59;;;16.04;100.00
54948;BME280;41113;41.882;12.530;2023-11-21T03:46:42;100372.44;;;16.05;100.00
54948;BME280;41113;41.882;12.530;2023-11-21T03:49:08;100368.69;;;16.06;100.00
54948;BME280;41113;41.882;12.530;2023-11-21T03:51:33;100357.88;;;16.06;100.00
54948;BME280;41113;41.882;12.530;2023-11-21T03:53:59;100361.41;;;16.06;100.00
54948;BME280;41113;41.882;12.530;2023-11-21T03:56:24;100359.91;;;16.04;100.00
54948;BME280;41113;41.882;12.530;2023-11-21T03:58:49;100349.91;;;16.04;100.00
54948;BME280;41113;41.882;12.530;2023-11-21T04:01:24;100355.34;;;16.04;100.00
54948;BME280;41113;41.882;12.530;2023-11-21T04:03:49;100353.47;;;16.05;100.00
54948;BME280;41113;41.882;12.530;2023-11-21T04:06:15;100357.88;;;16.06;100.00
54948;BME280;41113;41.882;12.530;2023-11-21T04:08:40;100351.78;;;16.04;100.00
54948;BME280;41113;41.882;12.530;2023-11-21T04:11:05;100349.06;;;16.04;100.00
54948;BME280;41113;41.882;12.530;2023-11-21T04:13:30;100351.78;;;16.04;100.00
54948;BME280;41113;41.882;12.530;2023-11-21T04:15:56;100352.81;;;16.03;100.00
54948;BME280;41113;41.882;12.530;2023-11-21T04:18:21;100359.25;;;16.02;100.00
54948;BME280;41113;41.882;12.530;2023-11-21T04:20:48;100356.53;;;16.02;100.00
54948;BME280;41113;41.882;12.530;2023-11-21T04:23:13;100356.53;;;16.02;100.00
54948;BME280;41113;41.882;12.530;2023-11-21T04:25:38;100351.13;;;16.02;100.00
54948;BME280;41113;41.882;12.530;2023-11-21T04:28:04;100361.13;;;16.01;100.00
54948;BME280;41113;41.882;12.530;2023-11-21T04:30:29;100347.75;;;16.00;100.00
54948;BME280;41113;41.882;12.530;2023-11-21T04:32:54;100351.47;;;15.99;100.00
54948;BME280;41113;41.882;12.530;2023-11-21T04:35:19;100350.47;;;16.00;100.00
54948;BME280;41113;41.882;12.530;2023-11-21T04:37:45;100353.00;;;16.01;100.00
54948;BME280;41113;41.882;12.530;2023-11-21T04:40:10;100354.84;;;16.01;100.00
54948;BME280;41113;41.882;12.530;2023-11-21T04:42:35;100352.16;;;16.01;100.00
54948;BME280;41113;41.882;12.530;2023-11-21T04:45:01;100356.53;;;16.02;100.00
54948;BME280;41113;41.882;12.530;2023-11-21T04:47:30;100357.38;;;16.02;100.00
54948;BME280;41113;41.882;12.530;2023-11-21T04:49:55;100353.81;;;16.02;100.00
54948;BME280;41113;41.882;12.530;2023-11-21T04:52:20;100356.34;;;16.03;100.00
54948;BME280;41113;41.882;12.530;2023-11-21T04:54:45;100355.50;;;16.03;100.00
54948;BME280;41113;41.882;12.530;2023-11-21T04:57:11;100350.09;;;16.03;100.00
54948;BME280;41113;41.882;12.530;2023-11-21T04:59:37;100347.38;;;16.03;100.00
54948;BME280;41113;41.882;12.530;2023-11-21T05:02:02;100339.25;;;16.03;100.00
54948;BME280;41113;41.882;12.530;2023-11-21T05:04:28;100341.97;;;16.03;100.00
54948;BME280;41113;41.882;12.530;2023-11-21T05:06:53;100344.50;;;16.04;100.00
54948;BME280;41113;41.882;12.530;2023-11-21T05:09:18;100343.66;;;16.04;100.00
54948;BME280;41113;41.882;12.530;2023-11-21T05:11:43;100354.50;;;16.04;100.00
54948;BME280;41113;41.882;12.530;2023-11-21T05:14:08;100348.06;;;16.05;100.00
54948;BME280;41113;41.882;12.530;2023-11-21T05:16:34;100342.44;;;16.06;100.00
54948;BME280;41113;41.882;12.530;2023-11-21T05:19:00;100339.91;;;16.05;100.00
54948;BME280;41113;41.882;12.530;2023-11-21T05:21:26;100337.22;;;16.05;100.00
54948;BME280;41113;41.882;12.530;2023-11-21T05:23:51;100337.88;;;16.07;100.00
54948;BME280;41113;41.882;12.530;2023-11-21T05:26:17;100332.47;;;16.07;100.00
54948;BME280;41113;41.882;12.530;2023-11-21T05:28:42;100329.94;;;16.05;100.00
54948;BME280;41113;41.882;12.530;2023-11-21T05:31:07;100327.03;;;16.07;100.00
54948;BME280;41113;41.882;12.530;2023-11-21T05:33:32;100334.13;;;16.08;100.00
54948;BME280;41113;41.882;12.530;2023-11-21T05:35:58;100334.13;;;16.08;100.00
54948;BME280;41113;41.882;12.530;2023-11-21T05:38:23;100333.13;;;16.09;100.00
54948;BME280;41113;41.882;12.530;2023-11-21T05:40:49;100327.69;;;16.09;100.00
54948;BME280;41113;41.882;12.530;2023-11-21T05:43:14;100320.41;;;16.09;100.00
54948;BME280;41113;41.882;12.530;2023-11-21T05:45:40;100315.84;;;16.10;100.00
54948;BME280;41113;41.882;12.530;2023-11-21T05:48:05;100311.25;;;16.10;100.00
54948;BME280;41113;41.882;12.530;2023-11-21T05:50:31;100301.28;;;16.11;100.00
54948;BME280;41113;41.882;12.530;2023-11-21T05:52:57;100303.13;;;16.10;100.00
54948;BME280;41113;41.882;12.530;2023-11-21T05:55:25;100299.59;;;16.10;100.00
54948;BME280;41113;41.882;12.530;2023-11-21T05:57:51;100307.72;;;16.10;100.00
54948;BME280;41113;41.882;12.530;2023-11-21T06:00:16;100305.00;;;16.10;100.00
54948;BME280;41113;41.882;12.530;2023-11-21T06:02:50;100288.75;;;16.10;100.00
54948;BME280;41113;41.882;12.530;2023-11-21T06:05:17;100286.03;;;16.10;100.00
54948;BME280;41113;41.882;12.530;2023-11-21T06:07:43;100292.31;;;16.10;100.00
54948;BME280;41113;41.882;12.530;2023-11-21T06:10:08;100279.59;;;16.11;100.00
54948;BME280;41113;41.882;12.530;2023-11-21T06:12:36;100280.44;;;16.11;100.00
54948;BME280;41113;41.882;12.530;2023-11-21T06:15:04;100287.53;;;16.12;100.00
54948;BME280;41113;41.882;12.530;2023-11-21T06:17:33;100301.09;;;16.12;100.00
54948;BME280;41113;41.882;12.530;2023-11-21T06:20:02;100290.06;;;16.14;100.00
54948;BME280;41113;41.882;12.530;2023-11-21T06:22:29;100291.09;;;16.13;100.00
54948;BME280;41113;41.882;12.530;2023-11-21T06:24:55;100284.66;;;16.14;100.00
54948;BME280;41113;41.882;12.530;2023-11-21T06:27:20;100286.16;;;16.16;100.00
54948;BME280;41113;41.882;12.530;2023-11-21T06:29:46;100283.44;;;16.16;100.00
54948;BME280;41113;41.882;12.530;2023-11-21T06:32:12;100287.66;;;16.19;100.00
54948;BME280;41113;41.882;12.530;2023-11-21T06:34:37;100289.34;;;16.20;100.00
54948;BME280;41113;41.882;12.530;2023-11-21T06:37:02;100289.34;;;16.20;100.00
54948;BME280;41113;41.882;12.530;2023-11-21T06:39:27;100300.66;;;16.24;100.00
54948;BME280;41113;41.882;12.530;2023-11-21T06:41:52;100299.63;;;16.25;100.00
54948;BME280;41113;41.882;12.530;2023-11-21T06:44:18;100303.16;;;16.25;100.00
54948;BME280;41113;41.882;12.530;2023-11-21T06:46:44;100298.59;;;16.26;100.00
54948;BME280;41113;41.882;12.530;2023-11-21T06:49:10;100299.47;;;16.26;100.00
54948;BME280;41113;41.882;12.530;2023-11-21T06:51:36;100304.53;;;16.29;100.00
54948;BME280;41113;41.882;12.530;2023-11-21T06:54:01;100289.94;;;16.30;100.00
54948;BME280;41113;41.882;12.530;2023-11-21T06:56:26;100291.63;;;16.31;100.00
54948;BME280;41113;41.882;12.530;2023-11-21T06:58:51;100269.56;;;16.34;100.00
54948;BME280;41113;41.882;12.530;2023-11-21T07:01:20;100274.16;;;16.34;100.00
54948;BME280;41113;41.882;12.530;2023-11-21T07:03:45;100273.31;;;16.33;100.00
54948;BME280;41113;41.882;12.530;2023-11-21T07:06:10;100289.22;;;16.36;100.00
54948;BME280;41113;41.882;12.530;2023-11-21T07:08:36;100283.78;;;16.36;100.00
54948;BME280;41113;41.882;12.530;2023-11-21T07:11:02;100288.00;;;16.39;100.00
54948;BME280;41113;41.882;12.530;2023-11-21T07:13:28;100276.31;;;16.38;100.00
54948;BME280;41113;41.882;12.530;2023-11-21T07:15:53;100288.00;;;16.39;100.00
54948;BME280;41113;41.882;12.530;2023-11-21T07:18:19;100295.94;;;16.40;100.00
54948;BME280;41113;41.882;12.530;2023-11-21T07:20:45;100287.63;;;16.42;100.00
54948;BME280;41113;41.882;12.530;2023-11-21T07:23:10;100277.63;;;16.42;100.00
54948;BME280;41113;41.882;12.530;2023-11-21T07:25:35;100271.16;;;16.43;100.00
54948;BME280;41113;41.882;12.530;2023-11-21T07:28:01;100272.84;;;16.44;100.00
54948;BME280;41113;41.882;12.530;2023-11-21T07:30:26;100261.00;;;16.45;100.00
54948;BME280;41113;41.882;12.530;2023-11-21T07:32:52;100251.84;;;16.46;100.00
54948;BME280;41113;41.882;12.530;2023-11-21T07:35:17;100241.63;;;16.48;100.00
54948;BME280;41113;41.882;12.530;2023-11-21T07:37:42;100243.97;;;16.52;100.00
54948;BME280;41113;41.882;12.530;2023-11-21T07:40:08;100243.59;;;16.55;100.00
54948;BME280;41113;41.882;12.530;2023-11-21T07:42:34;100247.81;;;16.57;100.00
54948;BME280;41113;41.882;12.530;2023-11-21T07:44:59;100238.50;;;16.60;100.00
54948;BME280;41113;41.882;12.530;2023-11-21T07:47:24;100232.03;;;16.61;100.00
54948;BME280;41113;41.882;12.530;2023-11-21T07:49:52;100226.25;;;16.64;100.00
54948;BME280;41113;41.882;12.530;2023-11-21T07:52:17;100231.31;;;16.67;100.00
54948;BME280;41113;41.882;12.530;2023-11-21T07:54:42;100236.38;;;16.70;100.00
54948;BME280;41113;41.882;12.530;2023-11-21T07:57:08;100226.16;;;16.72;100.00
54948;BME280;41113;41.882;12.530;2023-11-21T07:59:33;100230.56;;;16.73;100.00
54948;BME280;41113;41.882;12.530;2023-11-21T08:01:58;100228.88;;;16.72;100.00
54948;BME280;41113;41.882;12.530;2023-11-21T08:04:24;100243.28;;;16.72;100.00
54948;BME280;41113;41.882;12.530;2023-11-21T08:06:49;100236.38;;;16.70;100.00
54948;BME280;41113;41.882;12.530;2023-11-21T08:09:15;100238.44;;;16.68;100.00
54948;BME280;41113;41.882;12.530;2023-11-21T08:11:42;100224.22;;;16.66;100.00
54948;BME280;41113;41.882;12.530;2023-11-21T08:14:07;100229.63;;;16.66;100.00
54948;BME280;41113;41.882;12.530;2023-11-21T08:16:32;100230.63;;;16.65;100.00
54948;BME280;41113;41.882;12.530;2023-11-21T08:18:58;100222.16;;;16.68;100.00
54948;BME280;41113;41.882;12.530;2023-11-21T08:21:23;100227.22;;;16.71;100.00
54948;BME280;41113;41.882;12.530;2023-11-21T08:23:52;100228.03;;;16.71;100.00
54948;BME280;41113;41.882;12.530;2023-11-21T08:26:23;100225.16;;;16.73;100.00
54948;BME280;41113;41.882;12.530;2023-11-21T08:28:48;100215.97;;;16.74;100.00
54948;BME280;41113;41.882;12.530;2023-11-21T08:31:14;100211.22;;;16.76;100.00
54948;BME280;41113;41.882;12.530;2023-11-21T08:33:39;100215.22;;;16.80;100.00
54948;BME280;41113;41.882;12.530;2023-11-21T08:36:10;100220.66;;;16.80;100.00
54948;BME280;41113;41.882;12.530;2023-11-21T08:38:38;100216.91;;;16.81;100.00
54948;BME280;41113;41.882;12.530;2023-11-21T08:41:05;100209.41;;;16.83;100.00
54948;BME280;41113;41.882;12.530;2023-11-21T08:43:32;100212.41;;;16.88;100.00
54948;BME280;41113;41.882;12.530;2023-11-21T08:45:57;100190.34;;;16.91;100.00
54948;BME280;41113;41.882;12.530;2023-11-21T08:48:22;100193.34;;;16.96;100.00
54948;BME280;41113;41.882;12.530;2023-11-21T08:50:48;100191.91;;;17.00;100.00
54948;BME280;41113;41.882;12.530;2023-11-21T08:53:13;100194.91;;;17.05;100.00
54948;BME280;41113;41.882;12.530;2023-11-21T08:55:38;100195.16;;;17.10;100.00
54948;BME280;41113;41.882;12.530;2023-11-21T08:58:03;100181.88;;;17.16;100.00
54948;BME280;41113;41.882;12.530;2023-11-21T09:00:30;100172.94;;;17.22;100.00
54948;BME280;41113;41.882;12.530;2023-11-21T09:02:55;100185.78;;;17.28;100.00
54948;BME280;41113;41.882;12.530;2023-11-21T09:05:20;100183.72;;;17.30;100.00
54948;BME280;41113;41.882;12.530;2023-11-21T09:07:46;100191.47;;;17.33;100.00
54948;BME280;41113;41.882;12.530;2023-11-21T09:10:13;100197.53;;;17.35;100.00
54948;BME280;41113;41.882;12.530;2023-11-21T09:12:39;100193.16;;;17.34;100.00
54948;BME280;41113;41.882;12.530;2023-11-21T09:15:05;100190.44;;;17.34;100.00
54948;BME280;41113;41.882;12.530;2023-11-21T09:17:31;100190.03;;;17.37;100.00
54948;BME280;41113;41.882;12.530;2023-11-21T09:19:56;100180.59;;;17.33;100.00
54948;BME280;41113;41.882;12.530;2023-11-21T09:22:22;100187.91;;;17.32;100.00
54948;BME280;41113;41.882;12.530;2023-11-21T09:24:50;100173.88;;;17.29;100.00
54948;BME280;41113;41.882;12.530;2023-11-21T09:27:15;100168.84;;;17.26;100.00
54948;BME280;41113;41.882;12.530;2023-11-21T09:29:42;100175.94;;;17.27;100.00
54948;BME280;41113;41.882;12.530;2023-11-21T09:32:07;100180.72;;;17.25;100.00
54948;BME280;41113;41.882;12.530;2023-11-21T09:34:33;100161.75;;;17.25;100.00
54948;BME280;41113;41.882;12.530;2023-11-21T09:37:01;100161.44;;;17.20;100.00
54948;BME280;41113;41.882;12.530;2023-11-21T09:39:30;100153.88;;;17.15;100.00
54948;BME280;41113;41.882;12.530;2023-11-21T09:42:01;100158.84;;;17.11;100.00
54948;BME280;41113;41.882;12.530;2023-11-21T09:44:41;100143.34;;;17.05;100.00
54948;BME280;41113;41.882;12.530;2023-11-21T09:47:09;100136.56;;;16.95;100.00
54948;BME280;41113;41.882;12.530;2023-11-21T09:49:35;100148.63;;;16.92;100.00
54948;BME280;41113;41.882;12.530;2023-11-21T09:52:02;100159.75;;;16.83;100.00
54948;BME280;41113;41.882;12.530;2023-11-21T09:54:28;100148.00;;;16.75;100.00
54948;BME280;41113;41.882;12.530;2023-11-21T09:56:54;100136.31;;;16.75;100.00
54948;BME280;41113;41.882;12.530;2023-11-21T09:59:19;100137.53;;;16.72;100.00
54948;BME280;41113;41.882;12.530;2023-11-21T10:01:46;100140.81;;;16.68;100.00
54948;BME280;41113;41.882;12.530;2023-11-21T10:04:11;100139.13;;;16.67;100.00
54948;BME280;41113;41.882;12.530;2023-11-21T10:06:39;100132.19;;;16.64;100.00
54948;BME280;41113;41.882;12.530;2023-11-21T10:09:07;100132.38;;;16.63;100.00
54948;BME280;41113;41.882;12.530;2023-11-21T10:11:36;100122.38;;;16.63;100.00
54948;BME280;41113;41.882;12.530;2023-11-21T10:14:03;100115.28;;;16.62;100.00
54948;BME280;41113;41.882;12.530;2023-11-21T10:16:29;100118.81;;;16.63;100.00
54948;BME280;41113;41.882;12.530;2023-11-21T10:18:54;100117.78;;;16.64;100.00
54948;BME280;41113;41.882;12.530;2023-11-21T10:21:21;100101.19;;;16.67;100.00
54948;BME280;41113;41.882;12.530;2023-11-21T10:23:46;100105.38;;;16.69;100.00
54948;BME280;41113;41.882;12.530;2023-11-21T10:26:12;100106.66;;;16.73;100.00
54948;BME280;41113;41.882;12.530;2023-11-21T10:29:02;100093.81;;;16.82;100.00
54948;BME280;41113;41.882;12.530;2023-11-21T10:31:28;100083.44;;;16.86;100.00
54948;BME280;41113;41.882;12.530;2023-11-21T10:33:55;100086.41;;;16.91;100.00
54948;BME280;41113;41.882;12.530;2023-11-21T10:36:25;100077.72;;;16.95;100.00
54948;BME280;41113;41.882;12.530;2023-11-21T10:38:51;100076.09;;;17.01;100.00
54948;BME280;41113;41.882;12.530;2023-11-21T10:41:18;100069.06;;;17.06;100.00
54948;BME280;41113;41.882;12.530;2023-11-21T10:43:43;100061.19;;;17.11;100.00
54948;BME280;41113;41.882;12.530;2023-11-21T10:46:09;100057.94;;;17.23;100.00
54948;BME280;41113;41.882;12.530;2023-11-21T10:48:34;100058.22;;;17.28;100.00
54948;BME280;41113;41.882;12.530;2023-11-21T10:51:01;100065.13;;;17.30;100.00
54948;BME280;41113;41.882;12.530;2023-11-21T10:53:31;100066.59;;;17.33;100.00
54948;BME280;41113;41.882;12.530;2023-11-21T10:56:05;100064.94;;;17.32;100.00
54948;BME280;41113;41.882;12.530;2023-11-21T10:58:43;100062.59;;;17.29;100.00
54948;BME280;41113;41.882;12.530;2023-11-21T11:01:08;100059.31;;;17.33;100.00
54948;BME280;41113;41.882;12.530;2023-11-21T11:03:36;100055.16;;;17.37;100.00
54948;BME280;41113;41.882;12.530;2023-11-21T11:06:02;100056.00;;;17.38;100.00
54948;BME280;41113;41.882;12.530;2023-11-21T11:08:28;100051.22;;;17.40;99.02
54948;BME280;41113;41.882;12.530;2023-11-21T11:10:53;100039.31;;;17.41;97.08
54948;BME280;41113;41.882;12.530;2023-11-21T11:13:19;100043.72;;;17.42;95.65
54948;BME280;41113;41.882;12.530;2023-11-21T11:15:47;100043.91;;;17.40;93.64
54948;BME280;41113;41.882;12.530;2023-11-21T11:18:12;100043.97;;;17.47;93.99
54948;BME280;41113;41.882;12.530;2023-11-21T11:20:38;100039.81;;;17.51;94.97
54948;BME280;41113;41.882;12.530;2023-11-21T11:25:38;100037.50;;;17.48;90.72
54948;BME280;41113;41.882;12.530;2023-11-21T11:28:10;100041.56;;;17.59;93.16
54948;BME280;41113;41.882;12.530;2023-11-21T11:36:00;100019.19;;;17.85;89.33
54948;BME280;41113;41.882;12.530;2023-11-21T11:38:27;100012.97;;;17.91;89.36
54948;BME280;41113;41.882;12.530;2023-11-21T11:40:56;100015.13;;;18.02;88.71
54948;BME280;41113;41.882;12.530;2023-11-21T11:43:27;100005.13;;;18.09;86.98
54948;BME280;41113;41.882;12.530;2023-11-21T11:45:59;99997.41;;;18.19;87.45
54948;BME280;41113;41.882;12.530;2023-11-21T11:48:28;99988.41;;;18.12;85.72
54948;BME280;41113;41.882;12.530;2023-11-21T11:53:28;99972.06;;;17.99;86.66
54948;BME280;41113;41.882;12.530;2023-11-21T11:58:41;99964.16;;;18.11;84.58
54948;BME280;41113;41.882;12.530;2023-11-21T12:01:07;99958.94;;;18.16;83.88
54948;BME280;41113;41.882;12.530;2023-11-21T12:03:32;99959.56;;;18.11;82.79
54948;BME280;41113;41.882;12.530;2023-11-21T12:05:58;99956.59;;;18.06;81.13
54948;BME280;41113;41.882;12.530;2023-11-21T12:08:23;99950.53;;;18.04;81.76
54948;BME280;41113;41.882;12.530;2023-11-21T12:10:56;99953.66;;;18.01;79.99
54948;BME280;41113;41.882;12.530;2023-11-21T12:13:22;99937.38;;;18.01;79.96
54948;BME280;41113;41.882;12.530;2023-11-21T12:15:48;99941.97;;;18.07;82.14
54948;BME280;41113;41.882;12.530;2023-11-21T12:18:13;99938.22;;;18.08;80.29
54948;BME280;41113;41.882;12.530;2023-11-21T12:20:39;99937.59;;;18.06;80.42
54948;BME280;41113;41.882;12.530;2023-11-21T12:23:06;99939.47;;;18.06;81.13
54948;BME280;41113;41.882;12.530;2023-11-21T12:25:31;99932.34;;;18.04;80.31
54948;BME280;41113;41.882;12.530;2023-11-21T12:28:02;99928.16;;;18.02;80.40
54948;BME280;41113;41.882;12.530;2023-11-21T12:30:32;99924.00;;;18.06;81.39
54948;BME280;41113;41.882;12.530;2023-11-21T12:33:00;99921.50;;;18.04;80.80
54948;BME280;41113;41.882;12.530;2023-11-21T12:35:34;99910.63;;;18.11;82.29
54948;BME280;41113;41.882;12.530;2023-11-21T12:37:59;99909.59;;;18.12;79.61
54948;BME280;41113;41.882;12.530;2023-11-21T12:40:25;99901.84;;;18.09;80.54